createdAt,value
2023-01-12T00:37:37.184Z,8.50
2023-01-12T00:40:05.235Z,8.10
2023-01-12T00:42:51.335Z,7.70
2023-01-12T00:45:25.072Z,8.50
2023-01-12T00:47:53.531Z,7.00
2023-01-12T00:50:20.668Z,6.70
2023-01-12T00:52:47.748Z,7.00
2023-01-12T00:55:15.288Z,9.00
2023-01-12T00:57:43.679Z,7.50
2023-01-12T01:00:11.711Z,8.00
2023-01-12T01:02:38.909Z,7.20
2023-01-12T01:05:06.471Z,6.00
2023-01-12T01:07:33.506Z,6.40
2023-01-12T01:10:00.551Z,7.20
2023-01-12T01:12:27.732Z,7.40
2023-01-12T01:14:54.754Z,6.90
2023-01-12T01:17:21.815Z,6.50
2023-01-12T01:19:48.859Z,6.00
2023-01-12T01:22:15.870Z,6.30
2023-01-12T01:24:43.161Z,6.50
2023-01-12T01:27:10.505Z,7.70
2023-01-12T01:29:37.560Z,7.80
2023-01-12T01:32:05.006Z,8.50
2023-01-12T01:34:32.345Z,8.00
2023-01-12T01:36:59.517Z,7.40
2023-01-12T01:39:26.588Z,7.90
2023-01-12T01:41:54.967Z,7.60
2023-01-12T01:44:31.438Z,8.60
2023-01-12T01:47:07.239Z,9.10
2023-01-12T01:49:46.210Z,7.70
2023-01-12T01:52:29.330Z,7.90
2023-01-12T01:55:04.467Z,8.50
2023-01-12T01:57:34.182Z,8.40
2023-01-12T02:00:02.361Z,8.10
2023-01-12T02:02:32.423Z,8.30
2023-01-12T02:04:59.531Z,8.10
2023-01-12T02:07:26.690Z,8.30
2023-01-12T02:09:53.834Z,7.70
2023-01-12T02:12:39.534Z,7.50
2023-01-12T02:15:25.822Z,6.50
2023-01-12T02:17:55.741Z,7.50
2023-01-12T02:20:41.646Z,10.30
2023-01-12T02:23:32.039Z,9.30
2023-01-12T02:26:37.168Z,8.00
2023-01-12T02:29:30.536Z,7.40
2023-01-12T02:32:11.523Z,7.20
2023-01-12T02:35:01.932Z,6.90
2023-01-12T02:37:51.207Z,6.80
2023-01-12T02:40:31.139Z,6.60
2023-01-12T02:43:07.095Z,6.90
2023-01-12T02:45:43.183Z,6.40
2023-01-12T02:48:26.086Z,7.80
2023-01-12T02:51:17.626Z,7.90
2023-01-12T02:53:52.943Z,9.70
2023-01-12T02:56:24.096Z,10.00
2023-01-12T02:58:54.577Z,8.70
2023-01-12T03:01:21.878Z,8.20
2023-01-12T03:03:49.422Z,8.00
2023-01-12T03:06:17.647Z,6.90
2023-01-12T03:08:45.177Z,7.90
2023-01-12T03:11:18.673Z,7.30
2023-01-12T03:13:52.701Z,7.60
2023-01-12T03:16:22.003Z,6.60
2023-01-12T03:18:59.897Z,6.20
2023-01-12T03:21:39.143Z,5.70
2023-01-12T03:24:10.480Z,6.20
2023-01-12T03:26:39.883Z,5.50
2023-01-12T03:29:21.371Z,5.70
2023-01-12T03:31:48.439Z,5.60
2023-01-12T03:34:15.471Z,7.00
2023-01-12T03:36:53.788Z,5.70
2023-01-12T03:39:30.050Z,6.30
2023-01-12T03:42:00.184Z,6.20
2023-01-12T03:44:40.239Z,5.00
2023-01-12T03:47:12.295Z,6.10
2023-01-12T03:49:46.123Z,6.50
2023-01-12T03:52:13.259Z,6.00
2023-01-12T03:54:40.308Z,6.40
2023-01-12T03:57:07.767Z,6.40
2023-01-12T03:59:35.223Z,6.60
2023-01-12T04:02:03.305Z,6.40
2023-01-12T04:04:30.298Z,6.20
2023-01-12T04:06:57.419Z,6.10
2023-01-12T04:09:26.090Z,6.60
2023-01-12T04:12:11.464Z,6.40
2023-01-12T04:14:43.057Z,5.70
2023-01-12T04:17:11.916Z,5.90
2023-01-12T04:19:38.982Z,6.00
2023-01-12T04:22:25.165Z,5.90
2023-01-12T04:24:57.483Z,6.40
2023-01-12T04:27:24.484Z,5.80
2023-01-12T04:29:51.738Z,5.80
2023-01-12T04:32:18.799Z,6.20
2023-01-12T04:34:46.553Z,5.60
2023-01-12T04:37:13.727Z,6.90
2023-01-12T04:39:40.767Z,6.30
2023-01-12T04:42:27.776Z,6.60
2023-01-12T04:44:54.795Z,6.10
2023-01-12T04:47:21.803Z,6.40
2023-01-12T04:49:48.788Z,6.70
2023-01-12T04:52:15.881Z,6.20
2023-01-12T04:54:42.921Z,7.30
2023-01-12T04:57:09.894Z,6.50
2023-01-12T04:59:36.879Z,7.00
2023-01-12T05:02:03.985Z,7.40
2023-01-12T05:04:31.065Z,8.40
2023-01-12T05:06:58.166Z,8.50
2023-01-12T05:09:44.057Z,8.40
2023-01-12T05:12:11.313Z,7.10
2023-01-12T05:14:38.368Z,7.40
2023-01-12T05:17:05.434Z,7.40
2023-01-12T05:19:32.378Z,7.80
2023-01-12T05:21:59.519Z,8.30
2023-01-12T05:24:26.663Z,7.60
2023-01-12T05:26:53.718Z,6.80
2023-01-12T05:29:20.760Z,6.80
2023-01-12T05:31:47.929Z,8.10
2023-01-12T05:34:15.173Z,8.00
2023-01-12T05:36:42.218Z,7.50
2023-01-12T05:39:09.267Z,7.60
2023-01-12T05:41:36.218Z,6.20
2023-01-12T05:44:03.364Z,7.70
2023-01-12T05:46:31.464Z,7.70
2023-01-12T05:48:58.714Z,6.80
2023-01-12T05:51:26.551Z,7.70
2023-01-12T05:53:54.352Z,7.40
2023-01-12T05:56:28.949Z,8.20
2023-01-12T05:58:59.575Z,8.60
2023-01-12T06:01:27.254Z,8.90
2023-01-12T06:03:57.065Z,7.60
2023-01-12T06:06:26.064Z,8.70
2023-01-12T12:45:18.005Z,15.40
2023-01-12T12:48:12.564Z,15.60
2023-01-12T12:50:41.039Z,14.30
2023-01-12T12:53:12.865Z,15.70
2023-01-12T12:55:39.871Z,14.70
2023-01-12T12:58:31.112Z,13.10
2023-01-12T13:01:18.171Z,15.00
2023-01-12T13:03:55.056Z,11.40
2023-01-12T13:06:32.045Z,15.20
2023-01-12T13:08:59.672Z,13.50
2023-01-12T13:11:48.752Z,13.50
2023-01-12T13:14:19.340Z,13.70
2023-01-12T13:16:51.836Z,13.50
2023-01-12T13:19:41.266Z,15.40
2023-01-12T13:22:47.435Z,15.60
2023-01-12T13:25:19.611Z,15.20
2023-01-12T13:28:01.800Z,15.10
2023-01-12T13:32:55.741Z,15.10
2023-01-12T13:35:49.105Z,17.80
2023-01-12T13:38:19.961Z,17.20
2023-01-12T13:40:56.002Z,16.90
2023-01-12T13:43:29.429Z,17.20
2023-01-12T13:46:19.786Z,17.20
2023-01-12T13:48:49.151Z,16.90
2023-01-12T13:51:39.164Z,16.40
2023-01-12T13:54:16.096Z,15.30
2023-01-12T13:56:43.316Z,18.10
2023-01-12T13:59:18.015Z,17.00
2023-01-12T14:01:46.390Z,16.80
2023-01-12T14:04:19.940Z,15.80
2023-01-12T18:04:46.983Z,15.50
2023-01-12T18:07:14.088Z,14.40
2023-01-12T18:09:42.253Z,15.30
2023-01-12T18:12:10.947Z,13.50
2023-01-12T18:28:01.190Z,16.30
2023-01-12T18:30:28.249Z,16.80
2023-01-12T18:32:55.201Z,18.70
2023-01-12T18:35:22.556Z,22.10
2023-01-12T18:37:49.648Z,19.30
2023-01-12T18:40:16.714Z,21.10
2023-01-12T18:42:54.689Z,20.30
2023-01-12T18:45:22.431Z,20.40
2023-01-12T18:48:08.146Z,19.20
2023-01-12T18:50:53.786Z,20.00
2023-01-12T18:53:23.572Z,17.00
2023-01-12T18:55:55.370Z,16.80
2023-01-12T18:58:27.797Z,15.70
2023-01-12T19:00:57.702Z,16.80
2023-01-12T19:03:24.844Z,13.40
2023-01-12T19:05:54.778Z,11.50
2023-01-12T19:08:40.568Z,12.10
2023-01-12T19:11:11.578Z,12.40
2023-01-12T19:13:57.625Z,13.50
2023-01-12T19:16:43.294Z,10.80
2023-01-12T19:19:11.245Z,11.20
2023-01-12T19:22:16.711Z,10.90
2023-01-12T19:25:02.377Z,10.50
2023-01-12T19:27:48.315Z,11.40
2023-01-12T19:30:15.915Z,11.20
2023-01-12T19:32:44.220Z,13.10
2023-01-12T19:35:11.930Z,13.40
2023-01-12T19:37:40.500Z,12.00
2023-01-12T19:40:18.839Z,13.10
2023-01-12T19:43:04.535Z,13.60
2023-01-12T19:45:31.592Z,15.90
2023-01-12T19:47:58.727Z,14.00
2023-01-12T19:50:25.727Z,12.60
2023-01-12T19:52:52.685Z,12.90
2023-01-12T19:55:19.933Z,15.30
2023-01-12T19:57:47.016Z,25.80
2023-01-12T20:00:15.371Z,23.60
2023-01-12T20:02:45.780Z,19.80
2023-01-12T20:05:13.776Z,20.10
2023-01-12T20:07:57.520Z,22.70
2023-01-12T20:10:25.245Z,20.90
2023-01-12T20:12:53.120Z,17.20
2023-01-12T20:15:21.200Z,14.40
2023-01-12T20:17:48.983Z,11.70
2023-01-12T20:20:16.408Z,12.40
2023-01-12T20:22:46.047Z,12.40
2023-01-12T20:25:15.324Z,13.40
2023-01-12T20:27:42.942Z,18.40
2023-01-12T20:30:10.984Z,20.50
2023-01-12T20:32:42.007Z,19.20
2023-01-12T20:35:10.097Z,17.90
2023-01-12T20:37:37.449Z,18.10
2023-01-12T20:40:05.103Z,15.90
2023-01-12T20:42:32.467Z,18.90
2023-01-12T20:45:00.192Z,22.70
2023-01-12T20:47:28.357Z,21.20
2023-01-12T20:49:55.798Z,19.00
2023-01-12T20:52:23.672Z,16.30
2023-01-12T20:54:50.836Z,16.90
2023-01-12T20:57:17.869Z,16.30
2023-01-12T20:59:44.991Z,17.60
2023-01-12T21:02:25.432Z,18.80
2023-01-12T21:04:52.586Z,18.10
2023-01-12T21:07:21.702Z,17.00
2023-01-12T21:09:48.950Z,17.90
2023-01-12T21:12:16.479Z,18.00
2023-01-12T21:14:43.557Z,16.80
2023-01-12T21:17:10.622Z,15.00
2023-01-12T21:19:37.648Z,16.00
2023-01-12T21:22:04.698Z,15.40
2023-01-12T21:24:32.590Z,13.90
2023-01-12T21:26:59.621Z,13.80
2023-01-12T21:29:26.676Z,13.80
2023-01-12T21:31:53.826Z,13.10
2023-01-12T21:34:20.958Z,13.10
2023-01-12T21:36:49.135Z,13.10
2023-01-12T21:39:16.379Z,12.50
2023-01-12T21:42:02.077Z,11.80
2023-01-12T21:44:29.207Z,10.90
2023-01-12T21:46:56.193Z,11.20
2023-01-12T21:49:23.331Z,10.70
2023-01-12T21:51:50.446Z,11.80
2023-01-12T21:54:17.541Z,12.00
2023-01-12T21:56:44.554Z,12.10
2023-01-12T21:59:12.642Z,12.30
2023-01-12T22:01:40.410Z,11.90
2023-01-12T22:04:07.642Z,11.50
2023-01-12T22:06:34.778Z,12.50
2023-01-12T22:09:01.810Z,12.90
2023-01-12T22:11:28.770Z,12.40
2023-01-12T22:13:55.775Z,13.50
2023-01-12T22:16:22.837Z,13.90
2023-01-12T22:18:50.132Z,13.90
2023-01-12T22:21:18.741Z,13.50
2023-01-12T22:23:45.983Z,12.80
2023-01-12T22:26:13.910Z,13.10
2023-01-12T22:28:42.201Z,12.30
2023-01-12T22:31:13.875Z,12.00
2023-01-12T22:33:44.342Z,12.50
2023-01-12T22:36:11.482Z,13.40
2023-01-12T22:38:38.530Z,13.30
2023-01-12T22:41:09.852Z,13.20
2023-01-12T22:43:43.145Z,12.80
2023-01-12T22:46:26.053Z,12.60
2023-01-12T22:48:57.472Z,12.80
2023-01-12T22:51:25.893Z,11.70
2023-01-12T22:53:53.953Z,11.40
2023-01-12T22:56:21.338Z,12.60
2023-01-12T22:58:49.446Z,12.80
2023-01-12T23:01:17.043Z,12.60
2023-01-12T23:03:44.317Z,12.00
2023-01-12T23:06:12.694Z,11.70
2023-01-12T23:08:40.431Z,11.70
2023-01-12T23:11:19.180Z,11.40
2023-01-12T23:13:46.678Z,12.00
2023-01-12T23:16:15.604Z,10.90
2023-01-12T23:18:43.413Z,12.70
2023-01-12T23:21:14.332Z,13.10
2023-01-12T23:23:46.292Z,13.20
2023-01-12T23:28:46.412Z,13.00
2023-01-12T23:31:15.361Z,12.40
2023-01-12T23:33:45.310Z,12.80
2023-01-12T23:36:20.818Z,11.60
2023-01-12T23:38:47.984Z,12.20
2023-01-12T23:41:19.662Z,12.60
2023-01-12T23:43:47.953Z,12.20
2023-01-12T23:46:17.319Z,11.40
2023-01-12T23:48:44.343Z,12.40
2023-01-12T23:51:11.422Z,12.80
2023-01-12T23:53:38.507Z,12.30
2023-01-12T23:56:09.424Z,12.10
2023-01-12T23:58:36.875Z,11.70
